Quick Links (Output Below):   Max & Min Temps   /   Climate Reports   /   Zone Forecasts
River Forecasts   /   Forestry Forecasts   /   Aviation Forecasts   /   Radars   /   Features

Terminal Aerodrome Forecast (Little Rock)

Pick a Site:
Arkadelphia | El Dorado | Fayetteville | Fort Smith | Harrison | Highfill | Hot Springs | Jonesboro
Little Rock | Monticello | Mountain Home | Pine Bluff | Texarkana
 Forecast 

KLIT 250537Z 2506/2606 17009KT P6SM -RA VCTS BKN006CB OVC035
      WS020/22045KT
     FM250800 17009KT P6SM VCSH BKN006 OVC015 WS020/22045KT
     FM251100 20008G15KT P6SM VCSH SCT006 OVC020 WS020/22045KT
     FM251400 22012G22KT P6SM BKN020 OVC050 WS020/22045KT
     FM251600 25012G25KT P6SM SCT040=


 Latest METARs (Observations) 
How to Decode METARs
06Z KLIT 250553Z COR 15019G24KT 7SM OVC004 17/15 A2965 RMK AO2 PK WND
         13028/0531 SLP040 OCNL LTG DSNT E-SE TS MOVD E P0010 60071
         T01670150 10167 20150 401670111 58043 $
         
05Z KLIT 250453Z 20005KT 7SM -RA BKN006 BKN075 OVC110 16/14 A2977 RMK
         AO2 TSE0359 SLP081 TS MOVD E OCNL LTGIC DSNT E CB DSNT E MOV
         E CIG RGD P0007 T01610139 $
         
04Z KLIT 250353Z 14013KT 7SM -TSRA SCT004 SCT050CB OVC110 16/14 A2973
         RMK AO2 TSB0259 SLP068 FRQ LTGIC E TS E MOV E CIG RGD P0004
         T01610139 $
         
03Z KLIT 250253Z 13009KT 3SM -RA BR OVC004 15/13 A2977 RMK AO2 TSE41
         SLP083 SFC VIS 5 TS MOVD E CIG RGD P0017 60039 T01500133
         58027 $
         
02Z KLIT 250153Z 01008KT 3SM TSRA BR OVC004CB 15/13 A2984 RMK AO2
         TSB29 SLP105 FRQ LTGIC OHD TS OHD MOV E CIG RGD P0015
         T01500133 $
         
01Z KLIT 250053Z 14009KT 3SM -RA BR OVC004 15/13 A2983 RMK AO2 TSE02
         SLP102 SFC VIS 5 CIG RGD P0007 T01500128 $
         
00Z KLIT 242353Z 11003KT 2SM TSRA BR BKN004 OVC045CB 15/13 A2985 RMK
         AO2 TSB33 SLP110 CIG RGD OCNL LTGIC E TS E MOV E P0028 60074
         T01500133 10156 20144 58005 $
         
***** Today's Observations (Above) *****


23Z KLIT 242253Z 14003KT 2SM +RA BR BKN004 OVC044 16/13 A2987 RMK AO2
         SLP115 CIG RGD P0013 T01560133 $
         
22Z KLIT 242153Z 13006KT 2SM -RA BR BKN004 BKN038 OVC080 16/13 A2988
         RMK AO2 SLP119 VIS 2V4 CIG RGD P0013 T01560133
         
21Z KLIT 242053Z 10005KT 3SM -RA BR BKN004 BKN035 OVC065 15/13 A2987
         RMK AO2 SLP116 VIS 2V4 CIG RGD P0012 60020 T01500133
         58032
         
***** Yesterday's Observations (Above) *****


Back to Main Page
http://www.srh.noaa.gov/lzk/qfcst.php

USA.gov is the U.S. government's official web portal to all federal, state and local government web resources and services.